Home   Weather   USA   Roseville   Past weeks
Flag for USA

Past Weather in Roseville, California, USA — Yesterday and Last 2 Weeks

Currently: 55 °F. Clear. (Weather station: McClellan Air Force Base, USA). See more current weather

Past Weather in Roseville — Graph

°F

Roseville Temperature Yesterday

Maximum temperature yesterday: 82 °F (at 4:35 pm)
Minimum temperature yesterday: 46 °F (at 5:55 am)
Average temperature yesterday: 64 °F

High & Low Weather Summary for the Past Weeks

 TemperatureHumidityPressure
High84 °F (Apr 1, 3:55 pm)94% (Apr 6, 2:15 am)30.28 "Hg (Apr 6, 2:15 am)
Low43 °F (Mar 31, 6:15 am)10% (Apr 11, 5:55 pm)29.75 "Hg (Apr 11, 5:35 pm)
Average60 °F52%30.04 "Hg
* Reported Mar 27 11:15 pm — Apr 11 11:35 pm, Roseville. Weather by CustomWeather, © 2021

Note: Actual official high and low records may vary slightly from our data, if they occured in-between our weather recording intervals... More about our weather records

Roseville Weather History for the Previous 24 Hours

Scroll right to see more
 ConditionsComfort  
Time TempWeatherWind HumidityBarometerVisibility
11:35 pm
Sun, Apr 11
59 °FClear.7 mph63%29.78 "Hg10 mi
11:15 pm59 °FClear.6 mph63%29.78 "Hg10 mi
10:55 pm61 °FClear.5 mph59%29.78 "Hg10 mi
10:35 pm63 °FClear.5 mph56%29.78 "Hg10 mi
9:55 pm66 °FClear.3 mph49%29.77 "Hg10 mi
9:35 pm66 °FClear.6 mph49%29.77 "Hg10 mi
9:15 pm68 °FClear.6 mph46%29.76 "Hg10 mi
8:55 pm68 °FClear.6 mph43%29.76 "Hg10 mi
8:35 pm70 °FClear.5 mph40%29.76 "Hg10 mi
8:15 pm72 °FClear.8 mph33%29.75 "Hg10 mi
7:55 pm73 °FClear.No wind19%29.75 "Hg10 mi
7:35 pm75 °FSunny.3 mph18%29.75 "Hg10 mi
6:55 pm79 °FSunny.7 mph13%29.75 "Hg10 mi
6:35 pm81 °FSunny.7 mph12%29.75 "Hg10 mi
6:15 pm81 °FSunny.6 mph11%29.75 "Hg10 mi
5:55 pm82 °FSunny.9 mph10%29.75 "Hg10 mi
5:35 pm82 °FSunny.9 mph12%29.75 "Hg10 mi
5:15 pm82 °FSunny.8 mph13%29.76 "Hg10 mi
4:55 pm82 °FSunny.5 mph13%29.77 "Hg10 mi
4:35 pm82 °FSunny.8 mph13%29.77 "Hg10 mi
4:15 pm81 °FSunny.10 mph14%29.78 "Hg10 mi
3:55 pm81 °FSunny.7 mph15%29.78 "Hg10 mi
3:35 pm81 °FSunny.8 mph16%29.79 "Hg10 mi
3:15 pm81 °FSunny.5 mph18%29.80 "Hg10 mi
2:55 pm79 °FSunny.No wind21%29.81 "Hg10 mi
2:35 pm77 °FSunny.5 mph24%29.82 "Hg10 mi
2:15 pm77 °FSunny.5 mph26%29.83 "Hg10 mi
1:55 pm75 °FSunny.3 mph29%29.84 "Hg10 mi
1:35 pm75 °FSunny.6 mph29%29.85 "Hg10 mi
1:10 pm73 °FSunny.6 mph31%29.86 "Hg10 mi
12:55 pm72 °FSunny.6 mph33%29.87 "Hg10 mi
12:35 pm72 °FSunny.5 mph36%29.88 "Hg10 mi
12:15 pm70 °FSunny.6 mph38%29.88 "Hg10 mi
11:55 am68 °FSunny.7 mph40%29.89 "Hg10 mi
11:35 am68 °FSunny.6 mph40%29.90 "Hg10 mi
10:55 am64 °FSunny.3 mph46%29.90 "Hg10 mi
10:35 am64 °FSunny.3 mph46%29.91 "Hg10 mi
10:15 am63 °FSunny.No wind49%29.91 "Hg10 mi
9:55 am61 °FSunny.No wind55%29.91 "Hg10 mi
9:35 am59 °FSunny.No wind55%29.91 "Hg10 mi
9:15 am57 °FSunny.No wind59%29.91 "Hg10 mi
8:55 am55 °FSunny.No wind67%29.91 "Hg9 mi
8:35 am54 °FSunny.No wind72%29.91 "Hg9 mi
8:15 am52 °FSunny.No wind77%29.91 "Hg9 mi
7:55 am52 °FSunny.6 mph77%29.91 "Hg9 mi
7:35 am50 °FSunny.No wind82%29.90 "Hg10 mi
7:15 am50 °FSunny.No wind76%29.89 "Hg9 mi
6:55 am50 °FSunny.5 mph82%29.89 "Hg9 mi
6:35 am46 °FSunny.5 mph82%29.89 "Hg10 mi
6:15 am46 °FClear.5 mph82%29.90 "Hg10 mi
5:55 am46 °FClear.No wind82%29.89 "Hg10 mi
5:35 am50 °FClear.No wind82%29.88 "Hg10 mi
5:15 am50 °FClear.No wind76%29.88 "Hg10 mi
4:55 am50 °FClear.3 mph76%29.89 "Hg10 mi
4:35 am50 °FClear.3 mph76%29.89 "Hg10 mi
4:15 am50 °FClear.5 mph71%29.89 "Hg10 mi
3:55 am50 °FClear.6 mph71%29.89 "Hg10 mi
3:35 am50 °FClear.6 mph71%29.88 "Hg10 mi
2:55 am52 °FPassing clouds.5 mph67%29.88 "Hg10 mi
2:35 am52 °FPassing clouds.5 mph67%29.89 "Hg10 mi
2:15 am52 °FPassing clouds.6 mph67%29.90 "Hg10 mi
1:35 am52 °FPassing clouds.6 mph67%29.91 "Hg10 mi
1:15 am54 °FPassing clouds.6 mph63%29.92 "Hg10 mi
12:55 am54 °FPassing clouds.6 mph63%29.92 "Hg10 mi
12:35 am54 °FPassing clouds.8 mph63%29.92 "Hg10 mi
12:15 am55 °FPassing clouds.7 mph59%29.92 "Hg10 mi
Weather by CustomWeather, © 2021

See weather overview